Time;durP1;ratioP1;P1;durP2;ratioP2;P2;SDS_P1;SDS_P2;PMS_P1;PMS_P2;Temp;Humidity;BMP_temperature;BMP_pressure;BME280_temperature;BME280_humidity;BME280_pressure;Samples;Min_cycle;Max_cycle;Signal;HPM_P1;HPM_P2
2022/04/04 00:00:56;;;;;;;0.10;0.10;;;;;;;;;;4921635;29;20039;-90
2022/04/04 00:03:22;;;;;;;0.10;0.10;;;;;;;;;;4921641;29;20044;-90
2022/04/04 00:05:48;;;;;;;0.10;0.10;;;;;;;;;;4921669;29;20039;-88
2022/04/04 00:08:14;;;;;;;0.10;0.10;;;;;;;;;;4921864;29;20215;-90
2022/04/04 00:10:40;;;;;;;0.10;0.10;;;;;;;;;;4937652;29;20047;-90
2022/04/04 00:13:06;;;;;;;0.10;0.10;;;;;;;;;;4921778;29;20047;-90
2022/04/04 00:15:32;;;;;;;0.10;0.10;;;;;;;;;;4921646;29;20521;-91
2022/04/04 00:18:05;;;;;;;0.10;0.10;;;;;;;;;;4937708;29;20055;-90
2022/04/04 00:20:31;;;;;;;0.10;0.10;;;;;;;;;;4937668;29;20043;-90
2022/04/04 00:22:57;;;;;;;0.10;0.10;;;;;;;;;;4937844;29;20047;-89
2022/04/04 00:25:23;;;;;;;0.10;0.10;;;;;;;;;;4937513;29;20042;-89
2022/04/04 00:27:51;;;;;;;0.10;0.10;;;;;;;;;;4937174;29;20125;-89
2022/04/04 00:30:17;;;;;;;0.10;0.10;;;;;;;;;;4937178;29;20043;-89
2022/04/04 00:32:43;;;;;;;0.10;0.10;;;;;;;;;;4937958;29;20043;-89
2022/04/04 00:35:09;;;;;;;0.10;0.10;;;;;;;;;;4937468;29;20053;-89
2022/04/04 00:37:37;;;;;;;0.10;0.10;;;;;;;;;;4937230;29;20122;-89
2022/04/04 00:40:04;;;;;;;0.10;0.10;;;;;;;;;;4923255;29;20039;-90
2022/04/04 00:42:31;;;;;;;0.10;0.10;;;;;;;;;;4925632;29;20035;-89
2022/04/04 00:44:57;;;;;;;0.10;0.10;;;;;;;;;;4925319;29;20455;-88
2022/04/04 00:47:23;;;;;;;0.10;0.10;;;;;;;;;;4925273;29;20106;-90
2022/04/04 00:49:49;;;;;;;0.10;0.10;;;;;;;;;;4940952;29;20199;-90
2022/04/04 00:52:16;;;;;;;0.10;0.10;;;;;;;;;;4926118;29;20073;-89
2022/04/04 00:54:42;;;;;;;0.10;0.10;;;;;;;;;;4926007;29;20054;-90
2022/04/04 00:57:08;;;;;;;0.10;0.10;;;;;;;;;;4927854;29;20043;-90
2022/04/04 00:59:34;;;;;;;0.20;0.20;;;;;;;;;;4936878;29;20043;-91
2022/04/04 01:02:00;;;;;;;0.10;0.10;;;;;;;;;;4937080;29;20039;-90
2022/04/04 01:04:26;;;;;;;0.10;0.10;;;;;;;;;;4946114;29;20126;-90
2022/04/04 01:06:52;;;;;;;0.10;0.10;;;;;;;;;;4941512;29;20093;-91
2022/04/04 01:09:18;;;;;;;0.10;0.10;;;;;;;;;;4945851;29;20071;-89
2022/04/04 01:12:03;;;;;;;0.10;0.10;;;;;;;;;;4934905;29;20269;-90
2022/04/04 01:14:29;;;;;;;0.10;0.10;;;;;;;;;;4945685;29;20043;-89
2022/04/04 01:16:55;;;;;;;0.20;0.20;;;;;;;;;;4924043;29;20082;-89
2022/04/04 01:19:23;;;;;;;0.10;0.10;;;;;;;;;;4924109;29;20054;-89
2022/04/04 01:21:49;;;;;;;0.13;0.13;;;;;;;;;;4924277;29;20130;-89
2022/04/04 01:24:18;;;;;;;0.10;0.10;;;;;;;;;;4940111;29;20150;-89
2022/04/04 01:26:48;;;;;;;0.10;0.10;;;;;;;;;;4940209;29;20043;-89
2022/04/04 01:29:13;;;;;;;0.10;0.10;;;;;;;;;;4939969;29;20050;-89
2022/04/04 01:31:40;;;;;;;0.10;0.10;;;;;;;;;;4924345;29;20047;-89
2022/04/04 01:34:05;;;;;;;0.10;0.10;;;;;;;;;;4924717;29;20400;-89
2022/04/04 01:36:31;;;;;;;0.10;0.10;;;;;;;;;;4939884;29;20043;-90
2022/04/04 01:38:57;;;;;;;0.10;0.10;;;;;;;;;;4940008;29;20050;-89
2022/04/04 01:41:24;;;;;;;0.10;0.10;;;;;;;;;;4939845;29;20035;-90
2022/04/04 01:43:50;;;;;;;0.10;0.10;;;;;;;;;;4939412;29;20059;-89
2022/04/04 01:46:26;;;;;;;0.20;0.20;;;;;;;;;;4924023;29;20126;-90
2022/04/04 01:48:53;;;;;;;0.10;0.10;;;;;;;;;;4923849;29;20043;-91
2022/04/04 01:51:19;;;;;;;0.10;0.10;;;;;;;;;;4923647;29;20506;-91
2022/04/04 01:53:46;;;;;;;0.40;0.40;;;;;;;;;;4924710;29;20047;-90
2022/04/04 01:56:12;;;;;;;0.10;0.10;;;;;;;;;;4940055;29;20533;-91
2022/04/04 01:58:38;;;;;;;0.10;0.10;;;;;;;;;;4923900;29;20430;-90
2022/04/04 02:01:14;;;;;;;0.10;0.10;;;;;;;;;;4939735;29;20042;-90
2022/04/04 02:03:41;;;;;;;0.10;0.10;;;;;;;;;;4923907;29;20050;-90
2022/04/04 02:06:07;;;;;;;0.10;0.10;;;;;;;;;;4924501;29;20086;-90
2022/04/04 02:08:33;;;;;;;0.10;0.10;;;;;;;;;;4924315;29;20490;-91
2022/04/04 02:10:59;;;;;;;0.10;0.10;;;;;;;;;;4940492;29;20047;-90
2022/04/04 02:13:25;;;;;;;0.10;0.10;;;;;;;;;;4924080;29;20054;-91
2022/04/04 02:15:55;;;;;;;0.17;0.17;;;;;;;;;;4925360;29;20047;-90
2022/04/04 02:18:21;;;;;;;0.10;0.10;;;;;;;;;;4956019;29;20078;-90
2022/04/04 02:20:47;;;;;;;0.20;0.20;;;;;;;;;;4932711;29;20070;-90
2022/04/04 02:23:18;;;;;;;0.38;0.38;;;;;;;;;;4935552;29;20051;-89
2022/04/04 02:25:44;;;;;;;0.10;0.10;;;;;;;;;;4965021;29;20047;-89
2022/04/04 02:28:12;;;;;;;1.08;0.57;;;;;;;;;;4933266;29;20653;-90
2022/04/04 02:30:38;;;;;;;0.10;0.10;;;;;;;;;;4940499;29;20043;-90
2022/04/04 02:33:04;;;;;;;0.10;0.10;;;;;;;;;;4940475;29;20171;-89
2022/04/04 02:35:30;;;;;;;0.10;0.10;;;;;;;;;;4956240;28;20097;-89
2022/04/04 02:37:56;;;;;;;0.10;0.10;;;;;;;;;;4940080;29;20054;-89
2022/04/04 02:40:22;;;;;;;0.10;0.10;;;;;;;;;;4956773;29;20035;-91
2022/04/04 02:42:48;;;;;;;0.10;0.10;;;;;;;;;;4956861;28;20043;-91
2022/04/04 02:45:14;;;;;;;0.35;0.35;;;;;;;;;;4939488;29;20051;-90
2022/04/04 02:47:42;;;;;;;0.10;0.10;;;;;;;;;;4940227;29;20048;-89
2022/04/04 02:50:08;;;;;;;0.47;0.32;;;;;;;;;;4938821;29;20483;-89
2022/04/04 02:52:34;;;;;;;0.10;0.10;;;;;;;;;;4923777;29;20110;-90
2022/04/04 02:56:28;;;;;;;0.10;0.10;;;;;;;;;;4923314;29;20475;-90
2022/04/04 02:57:49;;;;;;;0.30;0.30;;;;;;;;;;4938827;29;20047;-89
2022/04/04 03:00:17;;;;;;;0.57;0.55;;;;;;;;;;4922498;29;20071;-90
2022/04/04 03:02:43;;;;;;;0.10;0.10;;;;;;;;;;4937986;29;20074;-89
2022/04/04 03:05:09;;;;;;;0.20;0.20;;;;;;;;;;4938072;29;20039;-88
2022/04/04 03:07:35;;;;;;;0.30;0.30;;;;;;;;;;4938096;29;20038;-89
2022/04/04 03:10:02;;;;;;;0.10;0.10;;;;;;;;;;4922202;29;20035;-88
2022/04/04 03:12:28;;;;;;;0.10;0.10;;;;;;;;;;4921965;29;20047;-89
2022/04/04 03:14:55;;;;;;;0.10;0.10;;;;;;;;;;4953860;28;20380;-88
2022/04/04 03:17:21;;;;;;;0.30;0.30;;;;;;;;;;4938133;29;20039;-90
2022/04/04 03:19:47;;;;;;;0.22;0.22;;;;;;;;;;4922266;29;20047;-90
2022/04/04 03:22:13;;;;;;;0.25;0.20;;;;;;;;;;4922396;29;20042;-91
2022/04/04 03:24:39;;;;;;;0.20;0.20;;;;;;;;;;4938381;29;20074;-91
2022/04/04 03:27:05;;;;;;;0.43;0.43;;;;;;;;;;4938396;29;20399;-91
2022/04/04 03:29:31;;;;;;;0.20;0.20;;;;;;;;;;4938354;29;20089;-91
2022/04/04 03:31:58;;;;;;;0.20;0.20;;;;;;;;;;4938118;29;20339;-91
2022/04/04 03:34:25;;;;;;;0.10;0.10;;;;;;;;;;4922400;29;20134;-90
2022/04/04 03:36:51;;;;;;;0.20;0.20;;;;;;;;;;4938678;29;20070;-92
2022/04/04 03:39:17;;;;;;;0.20;0.20;;;;;;;;;;4938307;29;20047;-91
2022/04/04 03:41:45;;;;;;;1.55;0.63;;;;;;;;;;4938401;29;20051;-90
2022/04/04 03:44:11;;;;;;;0.10;0.10;;;;;;;;;;4922204;29;20051;-91
2022/04/04 03:46:38;;;;;;;0.10;0.10;;;;;;;;;;4922297;29;20051;-91
2022/04/04 03:49:05;;;;;;;0.10;0.10;;;;;;;;;;4937962;29;20050;-91
2022/04/04 03:51:31;;;;;;;0.10;0.10;;;;;;;;;;4921981;29;20094;-91
2022/04/04 03:53:57;;;;;;;0.10;0.10;;;;;;;;;;4922424;29;20043;-91
2022/04/04 03:56:23;;;;;;;0.30;0.20;;;;;;;;;;4938467;29;20053;-91
2022/04/04 03:58:49;;;;;;;0.38;0.38;;;;;;;;;;4938298;29;20043;-91
2022/04/04 04:01:15;;;;;;;0.10;0.10;;;;;;;;;;4921848;29;20046;-91
2022/04/04 04:03:41;;;;;;;0.30;0.30;;;;;;;;;;4922303;29;20101;-90
2022/04/04 04:06:14;;;;;;;0.65;0.52;;;;;;;;;;4921951;29;20442;-90
2022/04/04 04:08:40;;;;;;;;;;;;;;;;;;4938406;29;20043;-91
2022/04/04 04:11:06;;;;;;;0.10;0.10;;;;;;;;;;4937467;29;19918;-90
2022/04/04 04:13:32;;;;;;;0.10;0.10;;;;;;;;;;4921823;29;20176;-90
2022/04/04 04:15:58;;;;;;;0.10;0.10;;;;;;;;;;4936816;29;20084;-89
2022/04/04 04:18:24;;;;;;;0.10;0.10;;;;;;;;;;4937133;29;20047;-89
2022/04/04 04:20:51;;;;;;;0.10;0.10;;;;;;;;;;4921415;29;20077;-89
2022/04/04 04:23:17;;;;;;;0.10;0.10;;;;;;;;;;4921063;29;20043;-89
2022/04/04 04:25:43;;;;;;;0.10;0.10;;;;;;;;;;4921240;29;20039;-90
2022/04/04 04:28:10;;;;;;;0.17;0.17;;;;;;;;;;4952989;29;20058;-90
2022/04/04 04:30:36;;;;;;;0.10;0.10;;;;;;;;;;4921192;29;20495;-91
2022/04/04 04:33:02;;;;;;;0.30;0.30;;;;;;;;;;4937536;29;20113;-90
2022/04/04 04:35:29;;;;;;;0.55;0.55;;;;;;;;;;4937723;29;20043;-90
2022/04/04 04:37:55;;;;;;;0.10;0.10;;;;;;;;;;4937301;29;20103;-90
2022/04/04 04:40:21;;;;;;;0.30;0.30;;;;;;;;;;4937216;29;20051;-91
2022/04/04 04:42:47;;;;;;;0.20;0.20;;;;;;;;;;4937526;29;20380;-91
2022/04/04 04:45:13;;;;;;;0.20;0.20;;;;;;;;;;4937029;29;20562;-92
2022/04/04 04:47:40;;;;;;;0.10;0.10;;;;;;;;;;4921739;29;20098;-91
2022/04/04 04:50:06;;;;;;;0.40;0.40;;;;;;;;;;4921643;29;20051;-93
2022/04/04 04:52:32;;;;;;;0.40;0.40;;;;;;;;;;4922179;29;20059;-92
2022/04/04 04:55:00;;;;;;;0.98;0.25;;;;;;;;;;4921765;29;20076;-91
2022/04/04 04:57:26;;;;;;;0.10;0.10;;;;;;;;;;4921990;29;20062;-90
2022/04/04 04:59:52;;;;;;;0.10;0.10;;;;;;;;;;4921620;29;20566;-91
2022/04/04 05:02:18;;;;;;;0.40;0.40;;;;;;;;;;4921345;29;20094;-91
2022/04/04 05:04:45;;;;;;;0.10;0.10;;;;;;;;;;4921393;29;20394;-91
2022/04/04 05:07:11;;;;;;;0.10;0.10;;;;;;;;;;4921244;29;20035;-92
2022/04/04 05:09:38;;;;;;;0.10;0.10;;;;;;;;;;4921513;29;20210;-91
2022/04/04 05:12:04;;;;;;;0.13;0.13;;;;;;;;;;4937857;29;20106;-92
2022/04/04 05:14:30;;;;;;;0.10;0.10;;;;;;;;;;4937561;29;20491;-91
2022/04/04 05:16:56;;;;;;;0.30;0.30;;;;;;;;;;4936971;29;20047;-90
2022/04/04 05:19:25;;;;;;;0.35;0.30;;;;;;;;;;4936674;29;20107;-90
2022/04/04 05:21:52;;;;;;;0.10;0.10;;;;;;;;;;4936624;29;20039;-91
2022/04/04 05:24:18;;;;;;;0.43;0.43;;;;;;;;;;4936661;29;20039;-89
2022/04/04 05:26:46;;;;;;;0.30;0.30;;;;;;;;;;4937702;29;20094;-88
2022/04/04 05:29:12;;;;;;;0.25;0.25;;;;;;;;;;4923928;29;20047;-88
2022/04/04 05:31:38;;;;;;;0.10;0.10;;;;;;;;;;4939520;29;20153;-88
2022/04/04 05:34:05;;;;;;;0.10;0.10;;;;;;;;;;4924188;29;20043;-89
2022/04/04 05:36:33;;;;;;;0.45;0.30;;;;;;;;;;4941332;29;20130;-89
2022/04/04 05:38:59;;;;;;;0.10;0.10;;;;;;;;;;4941025;29;20047;-88
2022/04/04 05:41:27;;;;;;;0.20;0.20;;;;;;;;;;4939428;29;20035;-89
2022/04/04 05:43:53;;;;;;;0.63;0.43;;;;;;;;;;4940586;29;20055;-89
2022/04/04 05:46:19;;;;;;;0.10;0.10;;;;;;;;;;4924916;29;20050;-89
2022/04/04 05:48:45;;;;;;;0.10;0.10;;;;;;;;;;4924776;29;20083;-90
2022/04/04 05:51:13;;;;;;;0.10;0.10;;;;;;;;;;4940813;29;20051;-88
2022/04/04 05:53:39;;;;;;;0.10;0.10;;;;;;;;;;4923430;29;20384;-88
2022/04/04 05:56:05;;;;;;;0.10;0.10;;;;;;;;;;4923406;29;20046;-89
2022/04/04 05:58:31;;;;;;;0.32;0.32;;;;;;;;;;4923634;29;20043;-89
2022/04/04 06:00:58;;;;;;;0.10;0.10;;;;;;;;;;4923528;29;20443;-89
2022/04/04 06:03:24;;;;;;;0.10;0.10;;;;;;;;;;4939378;29;20043;-89
2022/04/04 06:05:51;;;;;;;0.10;0.10;;;;;;;;;;4923223;29;20043;-92
2022/04/04 06:08:17;;;;;;;0.22;0.22;;;;;;;;;;4939112;29;20122;-90
2022/04/04 06:10:48;;;;;;;0.20;0.20;;;;;;;;;;4939046;29;20074;-89
2022/04/04 06:13:17;;;;;;;0.10;0.10;;;;;;;;;;4939103;29;20043;-89
2022/04/04 06:15:43;;;;;;;0.30;0.30;;;;;;;;;;4938947;29;20097;-89
2022/04/04 06:18:10;;;;;;;0.10;0.10;;;;;;;;;;4939198;29;20039;-89
2022/04/04 06:20:36;;;;;;;0.10;0.10;;;;;;;;;;4922947;29;20047;-89
2022/04/04 06:23:02;;;;;;;0.10;0.10;;;;;;;;;;4923143;29;20047;-89
2022/04/04 06:25:28;;;;;;;0.57;0.57;;;;;;;;;;4938911;29;20121;-90
2022/04/04 06:27:54;;;;;;;0.47;0.43;;;;;;;;;;4923720;29;20102;-92
2022/04/04 06:30:21;;;;;;;0.10;0.10;;;;;;;;;;4923866;29;20071;-92
2022/04/04 06:32:47;;;;;;;0.10;0.10;;;;;;;;;;4923981;29;20039;-92
2022/04/04 06:35:13;;;;;;;0.10;0.10;;;;;;;;;;4939542;29;20050;-92
2022/04/04 06:37:40;;;;;;;0.20;0.20;;;;;;;;;;4923003;29;20452;-92
2022/04/04 06:40:06;;;;;;;0.10;0.10;;;;;;;;;;4923413;29;20206;-92
2022/04/04 06:42:41;;;;;;;0.10;0.10;;;;;;;;;;4939820;29;20450;-92
2022/04/04 06:45:09;;;;;;;0.47;0.47;;;;;;;;;;4923184;29;20050;-93
2022/04/04 06:47:36;;;;;;;0.10;0.10;;;;;;;;;;4938316;29;20047;-92
2022/04/04 06:50:02;;;;;;;0.47;0.20;;;;;;;;;;4923558;29;20039;-92
2022/04/04 06:52:28;;;;;;;0.25;0.25;;;;;;;;;;4923228;29;20098;-92
2022/04/04 06:54:55;;;;;;;0.10;0.10;;;;;;;;;;4938665;29;20082;-91
2022/04/04 06:57:21;;;;;;;0.30;0.30;;;;;;;;;;4923394;29;20043;-91
2022/04/04 06:59:47;;;;;;;0.15;0.15;;;;;;;;;;4922800;29;20047;-92
2022/04/04 07:02:13;;;;;;;0.17;0.17;;;;;;;;;;4923430;29;20039;-92
2022/04/04 07:04:41;;;;;;;0.20;0.20;;;;;;;;;;4936752;28;20379;-90
2022/04/04 07:07:07;;;;;;;1.95;0.75;;;;;;;;;;4958029;28;20115;-92
2022/04/04 07:09:33;;;;;;;0.10;0.10;;;;;;;;;;4943279;29;20174;-91
2022/04/04 07:11:59;;;;;;;0.20;0.20;;;;;;;;;;4954768;28;20047;-94
2022/04/04 07:14:25;;;;;;;0.63;0.63;;;;;;;;;;4922596;29;20211;-93
2022/04/04 07:16:53;;;;;;;1.90;0.47;;;;;;;;;;4927633;28;20050;-92
2022/04/04 07:19:33;;;;;;;0.20;0.20;;;;;;;;;;4941892;28;20043;-93
2022/04/04 07:21:59;;;;;;;0.15;0.15;;;;;;;;;;4944317;28;20062;-91
2022/04/04 07:24:25;;;;;;;0.20;0.20;;;;;;;;;;4957722;28;20126;-91
2022/04/04 07:26:51;;;;;;;0.10;0.10;;;;;;;;;;4953316;29;20078;-91
2022/04/04 07:29:17;;;;;;;1.17;0.43;;;;;;;;;;4922691;28;20055;-91
2022/04/04 07:31:43;;;;;;;0.10;0.10;;;;;;;;;;4957468;28;20125;-93
2022/04/04 07:34:14;;;;;;;0.20;0.20;;;;;;;;;;4942384;28;20133;-92
2022/04/04 07:36:40;;;;;;;0.20;0.20;;;;;;;;;;4942153;28;20050;-92
2022/04/04 07:39:06;;;;;;;0.10;0.10;;;;;;;;;;4941989;28;20070;-92
2022/04/04 07:41:32;;;;;;;0.10;0.10;;;;;;;;;;4941356;28;20097;-92
2022/04/04 07:43:58;;;;;;;0.10;0.10;;;;;;;;;;4941561;28;20466;-94
2022/04/04 07:46:26;;;;;;;0.40;0.30;;;;;;;;;;4941399;28;20425;-92
2022/04/04 07:48:55;;;;;;;0.20;0.20;;;;;;;;;;4940768;28;20091;-93
2022/04/04 07:51:21;;;;;;;0.10;0.10;;;;;;;;;;4941236;28;20097;-91
2022/04/04 07:53:47;;;;;;;0.20;0.20;;;;;;;;;;4941698;28;20046;-93
2022/04/04 07:56:13;;;;;;;0.25;0.25;;;;;;;;;;4941134;28;20050;-93
2022/04/04 07:58:39;;;;;;;0.20;0.20;;;;;;;;;;4941226;28;20039;-94
2022/04/04 08:01:06;;;;;;;0.10;0.10;;;;;;;;;;4951702;28;20379;-93
2022/04/04 08:03:35;;;;;;;0.20;0.20;;;;;;;;;;4957681;28;20050;-96
2022/04/04 08:06:01;;;;;;;0.10;0.10;;;;;;;;;;4941758;28;20046;-95
2022/04/04 08:08:29;;;;;;;0.10;0.10;;;;;;;;;;4941426;28;20078;-94
2022/04/04 08:10:55;;;;;;;0.20;0.20;;;;;;;;;;4957280;28;20059;-92
2022/04/04 08:13:21;;;;;;;0.15;0.15;;;;;;;;;;4941320;28;20074;-93
2022/04/04 08:15:47;;;;;;;2.72;0.52;;;;;;;;;;4957416;28;20047;-93
2022/04/04 08:18:13;;;;;;;0.10;0.10;;;;;;;;;;4941059;28;20105;-93
2022/04/04 08:20:39;;;;;;;0.10;0.10;;;;;;;;;;4941644;28;20034;-92
2022/04/04 08:23:05;;;;;;;0.20;0.20;;;;;;;;;;4942367;28;20129;-92
2022/04/04 08:25:31;;;;;;;0.20;0.20;;;;;;;;;;4941597;28;20077;-96
2022/04/04 08:27:58;;;;;;;0.10;0.10;;;;;;;;;;4943444;28;20042;-95
2022/04/04 08:30:24;;;;;;;0.20;0.20;;;;;;;;;;4941334;28;20561;-94
2022/04/04 08:32:50;;;;;;;0.47;0.47;;;;;;;;;;4957843;28;20043;-93
2022/04/04 08:35:16;;;;;;;0.10;0.10;;;;;;;;;;4941597;28;20090;-93
2022/04/04 08:37:43;;;;;;;0.25;0.25;;;;;;;;;;4948950;28;20039;-95
2022/04/04 08:40:10;;;;;;;0.10;0.10;;;;;;;;;;4946763;28;20047;-94
2022/04/04 08:42:37;;;;;;;0.43;0.43;;;;;;;;;;4940946;28;20057;-91
2022/04/04 08:45:04;;;;;;;0.10;0.10;;;;;;;;;;4962187;28;20134;-96
2022/04/04 08:47:31;;;;;;;0.10;0.10;;;;;;;;;;4941221;28;20043;-92
2022/04/04 08:49:59;;;;;;;0.20;0.20;;;;;;;;;;4941175;28;20082;-93
2022/04/04 08:52:26;;;;;;;0.55;0.30;;;;;;;;;;4957094;28;20058;-93
2022/04/04 08:54:52;;;;;;;0.20;0.20;;;;;;;;;;4956806;28;20525;-93
2022/04/04 08:57:18;;;;;;;0.10;0.10;;;;;;;;;;4940893;28;20043;-94
2022/04/04 08:59:44;;;;;;;0.20;0.20;;;;;;;;;;4956784;28;20070;-93
2022/04/04 09:02:12;;;;;;;0.10;0.10;;;;;;;;;;4944911;28;20039;-93
2022/04/04 09:04:38;;;;;;;0.52;0.20;;;;;;;;;;4961205;28;20138;-95
2022/04/04 09:07:08;;;;;;;0.10;0.10;;;;;;;;;;4944408;28;20042;-92
2022/04/04 09:09:37;;;;;;;0.10;0.10;;;;;;;;;;4944420;28;20053;-92
2022/04/04 09:12:10;;;;;;;0.10;0.10;;;;;;;;;;4949492;28;20057;-91
2022/04/04 09:14:37;;;;;;;0.47;0.47;;;;;;;;;;4960178;28;20478;-91
2022/04/04 09:17:03;;;;;;;0.10;0.10;;;;;;;;;;4944574;28;20039;-94
2022/04/04 09:19:30;;;;;;;0.10;0.10;;;;;;;;;;4941497;28;20123;-93
2022/04/04 09:21:56;;;;;;;0.10;0.10;;;;;;;;;;4940818;29;20130;-92
2022/04/04 09:24:22;;;;;;;0.10;0.10;;;;;;;;;;4924609;29;20178;-92
2022/04/04 09:26:49;;;;;;;0.10;0.10;;;;;;;;;;4940852;29;20046;-94
2022/04/04 09:29:24;;;;;;;0.15;0.15;;;;;;;;;;4940865;29;20498;-91
2022/04/04 09:31:53;;;;;;;0.17;0.17;;;;;;;;;;4940711;29;20511;-92
2022/04/04 09:34:20;;;;;;;0.10;0.10;;;;;;;;;;4956365;28;20512;-91
2022/04/04 09:36:46;;;;;;;0.10;0.10;;;;;;;;;;4940597;29;20134;-93
2022/04/04 09:39:12;;;;;;;0.10;0.10;;;;;;;;;;4924603;29;20082;-91
2022/04/04 09:41:39;;;;;;;0.10;0.10;;;;;;;;;;4940594;29;20106;-93
2022/04/04 09:44:05;;;;;;;0.10;0.10;;;;;;;;;;4924344;29;20106;-92
2022/04/04 09:46:41;;;;;;;0.10;0.10;;;;;;;;;;4924788;29;20078;-92
2022/04/04 09:49:13;;;;;;;0.10;0.10;;;;;;;;;;4924374;29;20509;-92
2022/04/04 09:51:52;;;;;;;0.10;0.10;;;;;;;;;;4940951;29;20058;-92
2022/04/04 09:54:26;;;;;;;0.10;0.10;;;;;;;;;;4943732;29;20474;-95
2022/04/04 09:57:11;;;;;;;0.10;0.10;;;;;;;;;;4928755;29;20047;-96
2022/04/04 09:59:37;;;;;;;0.10;0.10;;;;;;;;;;4944626;29;20047;-92
2022/04/04 10:02:03;;;;;;;0.20;0.20;;;;;;;;;;4942428;29;20094;-93
2022/04/04 10:04:31;;;;;;;0.10;0.10;;;;;;;;;;4944476;29;20153;-93
2022/04/04 10:06:57;;;;;;;0.10;0.10;;;;;;;;;;4927988;29;20107;-95
2022/04/04 10:09:24;;;;;;;0.10;0.10;;;;;;;;;;4928968;29;20086;-94
2022/04/04 10:11:50;;;;;;;0.15;0.15;;;;;;;;;;4941988;29;20043;-93
2022/04/04 10:14:17;;;;;;;0.10;0.10;;;;;;;;;;4958577;29;20439;-95
2022/04/04 10:16:43;;;;;;;0.20;0.20;;;;;;;;;;4940143;29;20051;-93
2022/04/04 10:19:09;;;;;;;0.20;0.20;;;;;;;;;;4924169;29;20521;-93
2022/04/04 10:21:35;;;;;;;0.10;0.10;;;;;;;;;;4924057;29;20519;-93
2022/04/04 10:24:01;;;;;;;0.10;0.10;;;;;;;;;;4924031;29;20035;-93
2022/04/04 10:26:34;;;;;;;0.10;0.10;;;;;;;;;;4923893;29;20043;-94
2022/04/04 10:29:12;;;;;;;0.10;0.10;;;;;;;;;;4939698;29;20043;-94
2022/04/04 10:31:45;;;;;;;0.10;0.10;;;;;;;;;;4923958;29;20490;-94
2022/04/04 10:34:12;;;;;;;0.10;0.10;;;;;;;;;;4924405;29;20488;-93
2022/04/04 10:36:38;;;;;;;0.10;0.10;;;;;;;;;;4925594;29;20043;-95
2022/04/04 10:44:50;;;;;;;0.20;0.20;;;;;;;;;;5494437;23;20062;-93
2022/04/04 10:47:19;;;;;;;0.38;0.30;;;;;;;;;;4927582;28;20050;-95
2022/04/04 10:49:45;;;;;;;0.10;0.10;;;;;;;;;;4925510;28;20042;-94
2022/04/04 10:52:11;;;;;;;0.10;0.10;;;;;;;;;;4907969;29;20054;-94
2022/04/04 10:54:38;;;;;;;0.10;0.10;;;;;;;;;;4923894;29;20094;-95
2022/04/04 10:57:16;;;;;;;0.10;0.10;;;;;;;;;;5355544;23;20116;-96
2022/04/04 10:59:46;;;;;;;0.20;0.20;;;;;;;;;;4928190;28;20105;-95
2022/04/04 11:02:14;;;;;;;0.10;0.10;;;;;;;;;;4908228;29;20397;-96
2022/04/04 11:07:41;;;;;;;0.10;0.10;;;;;;;;;;4927143;29;20047;-96
2022/04/04 11:10:08;;;;;;;;;;;;;;;;;;4912165;29;20113;-94
2022/04/04 11:12:56;;;;;;;0.10;0.10;;;;;;;;;;4927987;29;19918;-94
2022/04/04 11:16:02;;;;;;;0.10;0.10;;;;;;;;;;4907909;29;20047;-96
2022/04/04 11:29:25;;;;;;;0.10;0.10;;;;;;;;;;5339567;23;20133;-95
2022/04/04 11:32:20;;;;;;;0.20;0.20;;;;;;;;;;4944688;28;20054;-95
2022/04/04 11:34:59;;;;;;;0.10;0.10;;;;;;;;;;4943231;28;20046;-96
2022/04/04 11:37:48;;;;;;;0.10;0.10;;;;;;;;;;4920750;29;20039;-95
2022/04/04 11:44:34;;;;;;;0.10;0.10;;;;;;;;;;4913375;29;20047;-95
2022/04/04 11:46:43;;;;;;;0.10;0.10;;;;;;;;;;4916981;29;20098;-96
2022/04/04 11:49:14;;;;;;;0.10;0.10;;;;;;;;;;4907677;29;20057;-96
2022/04/04 11:51:45;;;;;;;0.10;0.10;;;;;;;;;;4911091;29;20043;-93
2022/04/04 11:54:13;;;;;;;0.10;0.10;;;;;;;;;;4906609;29;20045;-93
2022/04/04 11:56:42;;;;;;;0.10;0.10;;;;;;;;;;4906694;29;20505;-93
2022/04/04 11:59:19;;;;;;;0.10;0.10;;;;;;;;;;4922911;29;20447;-94
2022/04/04 12:01:46;;;;;;;0.10;0.10;;;;;;;;;;4906811;29;20102;-95
2022/04/04 12:04:14;;;;;;;0.10;0.10;;;;;;;;;;4907073;29;20237;-92
2022/04/04 12:06:40;;;;;;;0.10;0.10;;;;;;;;;;4906990;29;20035;-94
2022/04/04 12:09:10;;;;;;;0.10;0.10;;;;;;;;;;4906477;29;20039;-93
2022/04/04 12:11:39;;;;;;;0.10;0.10;;;;;;;;;;4907201;29;20126;-93
2022/04/04 12:14:09;;;;;;;0.10;0.10;;;;;;;;;;4906495;29;20539;-94
2022/04/04 12:16:43;;;;;;;0.10;0.10;;;;;;;;;;4906318;28;20110;-95
2022/04/04 12:19:09;;;;;;;0.10;0.10;;;;;;;;;;4924794;28;20046;-94
2022/04/04 12:21:36;;;;;;;0.10;0.10;;;;;;;;;;4925387;28;20039;-94
2022/04/04 12:27:12;;;;;;;0.10;0.10;;;;;;;;;;4961070;28;20039;-93
2022/04/04 12:29:42;;;;;;;0.10;0.10;;;;;;;;;;4940525;28;20151;-95
2022/04/04 12:32:15;;;;;;;0.10;0.10;;;;;;;;;;4925002;28;20047;-95
2022/04/04 12:34:53;;;;;;;0.10;0.10;;;;;;;;;;4925627;28;20433;-93
2022/04/04 12:37:19;;;;;;;0.10;0.10;;;;;;;;;;4929284;28;20047;-94
2022/04/04 12:39:49;;;;;;;0.10;0.10;;;;;;;;;;4929031;28;20053;-93
2022/04/04 12:42:22;;;;;;;0.10;0.10;;;;;;;;;;4933293;28;20042;-95
2022/04/04 12:44:48;;;;;;;;;;;;;;;;;;4945815;28;20050;-94
2022/04/04 12:47:15;;;;;;;0.10;0.10;;;;;;;;;;4947480;28;20353;-93
2022/04/04 12:49:44;;;;;;;0.10;0.10;;;;;;;;;;4929152;28;20043;-95
2022/04/04 12:52:21;;;;;;;0.10;0.10;;;;;;;;;;4929606;28;20474;-96
2022/04/04 12:54:47;;;;;;;0.10;0.10;;;;;;;;;;4944513;28;20051;-94
2022/04/04 12:57:13;;;;;;;0.10;0.10;;;;;;;;;;4928761;28;20051;-92
2022/04/04 12:59:54;;;;;;;0.10;0.10;;;;;;;;;;4943476;28;20498;-91
2022/04/04 13:02:20;;;;;;;0.10;0.10;;;;;;;;;;4928446;28;20049;-92
2022/04/04 13:04:47;;;;;;;0.10;0.10;;;;;;;;;;4944443;28;20034;-92
2022/04/04 13:07:24;;;;;;;0.10;0.10;;;;;;;;;;4928298;28;20047;-91
2022/04/04 13:09:54;;;;;;;0.10;0.10;;;;;;;;;;4929099;28;20046;-92
2022/04/04 13:12:31;;;;;;;0.10;0.10;;;;;;;;;;4928327;28;20094;-93
2022/04/04 13:14:57;;;;;;;0.10;0.10;;;;;;;;;;4928384;28;20082;-93
2022/04/04 13:17:34;;;;;;;0.10;0.10;;;;;;;;;;4928559;28;20049;-93
2022/04/04 13:20:00;;;;;;;0.10;0.10;;;;;;;;;;4927892;28;20482;-93
2022/04/04 13:22:26;;;;;;;0.10;0.10;;;;;;;;;;4928709;28;20053;-92
2022/04/04 13:24:52;;;;;;;0.10;0.10;;;;;;;;;;4929266;28;20038;-93
2022/04/04 13:27:24;;;;;;;0.10;0.10;;;;;;;;;;4928150;28;20093;-94
2022/04/04 13:29:53;;;;;;;0.10;0.10;;;;;;;;;;4928171;28;20145;-95
2022/04/04 13:32:19;;;;;;;0.10;0.10;;;;;;;;;;4921393;28;20070;-93
2022/04/04 13:34:48;;;;;;;0.10;0.10;;;;;;;;;;4928500;28;20046;-93
2022/04/04 13:37:18;;;;;;;0.10;0.10;;;;;;;;;;4928509;29;20395;-95
2022/04/04 13:39:44;;;;;;;0.10;0.10;;;;;;;;;;4940058;28;20051;-96
2022/04/04 13:42:10;;;;;;;0.10;0.10;;;;;;;;;;4924847;29;20046;-96
2022/04/04 13:44:36;;;;;;;0.10;0.10;;;;;;;;;;4924500;29;20047;-95
2022/04/04 13:47:02;;;;;;;0.10;0.10;;;;;;;;;;4923644;29;20040;-95
2022/04/04 13:49:37;;;;;;;0.10;0.10;;;;;;;;;;4924717;29;20086;-96
2022/04/04 13:52:06;;;;;;;0.10;0.10;;;;;;;;;;4924769;29;20043;-96
2022/04/04 13:54:32;;;;;;;0.10;0.10;;;;;;;;;;4925151;29;20052;-96
2022/04/04 13:56:58;;;;;;;0.10;0.10;;;;;;;;;;4924247;29;20134;-95
2022/04/04 13:59:24;;;;;;;0.10;0.10;;;;;;;;;;4924254;29;20122;-96
2022/04/04 14:01:50;;;;;;;0.10;0.10;;;;;;;;;;4924828;29;20050;-96
2022/04/04 14:04:16;;;;;;;0.10;0.10;;;;;;;;;;4926170;29;20138;-96
2022/04/04 14:06:42;;;;;;;0.10;0.10;;;;;;;;;;4925359;29;20035;-95
2022/04/04 14:09:08;;;;;;;0.10;0.10;;;;;;;;;;4929568;29;20049;-95
2022/04/04 14:11:35;;;;;;;0.10;0.10;;;;;;;;;;4931519;29;20046;-95
2022/04/04 14:14:01;;;;;;;0.10;0.10;;;;;;;;;;4941872;29;20051;-94
2022/04/04 14:16:27;;;;;;;0.10;0.10;;;;;;;;;;4939472;29;20043;-96
2022/04/04 14:18:53;;;;;;;0.10;0.10;;;;;;;;;;4931408;29;20054;-91
2022/04/04 14:21:19;;;;;;;0.10;0.10;;;;;;;;;;4931027;29;20063;-93
2022/04/04 14:23:48;;;;;;;0.10;0.10;;;;;;;;;;4937189;29;20054;-95
2022/04/04 14:26:14;;;;;;;0.10;0.10;;;;;;;;;;4924522;29;20483;-91
2022/04/04 14:28:41;;;;;;;0.10;0.10;;;;;;;;;;4927889;29;20070;-93
2022/04/04 14:31:07;;;;;;;0.10;0.10;;;;;;;;;;4923836;29;20070;-91
2022/04/04 14:33:33;;;;;;;0.10;0.10;;;;;;;;;;4923761;29;20102;-92
2022/04/04 14:36:00;;;;;;;0.10;0.10;;;;;;;;;;4923488;29;20043;-93
2022/04/04 14:38:29;;;;;;;0.10;0.10;;;;;;;;;;4923753;29;20182;-94
2022/04/04 14:40:55;;;;;;;0.10;0.10;;;;;;;;;;4939710;28;20051;-92
2022/04/04 14:43:21;;;;;;;0.10;0.10;;;;;;;;;;4908089;29;20039;-92
2022/04/04 14:45:48;;;;;;;0.10;0.10;;;;;;;;;;4910630;29;20043;-91
2022/04/04 14:48:15;;;;;;;0.10;0.10;;;;;;;;;;4919002;28;20441;-94
2022/04/04 14:54:18;;;;;;;0.10;0.10;;;;;;;;;;4974933;28;20129;-96
2022/04/04 14:56:52;;;;;;;0.10;0.10;;;;;;;;;;4958418;28;20049;-93
2022/04/04 14:59:21;;;;;;;0.10;0.10;;;;;;;;;;4926402;28;20481;-93
2022/04/04 15:01:48;;;;;;;0.10;0.10;;;;;;;;;;4910243;29;20035;-93
2022/04/04 15:04:18;;;;;;;0.15;0.15;;;;;;;;;;4908054;29;20043;-93
2022/04/04 15:06:44;;;;;;;0.10;0.10;;;;;;;;;;4922492;29;20130;-94
2022/04/04 15:09:11;;;;;;;0.10;0.10;;;;;;;;;;4907259;29;20050;-94
2022/04/04 15:11:37;;;;;;;0.10;0.10;;;;;;;;;;4907334;29;20043;-93
2022/04/04 15:14:05;;;;;;;0.10;0.10;;;;;;;;;;4907469;29;20102;-92
2022/04/04 15:16:33;;;;;;;0.10;0.10;;;;;;;;;;4908055;28;20043;-94